Time;durP1;ratioP1;P1;durP2;ratioP2;P2;SDS_P1;SDS_P2;PMS_P1;PMS_P2;Temp;Humidity;BMP_temperature;BMP_pressure;BME280_temperature;BME280_humidity;BME280_pressure;Samples;Min_cycle;Max_cycle;Signal;HPM_P1;HPM_P2
2024/01/14 00:02:03;;;;;;;9.52;5.10;;;;;;;;;;6272748;28;20028;-75
2024/01/14 00:05:03;;;;;;;11.30;5.37;;;;;;;;;;6288083;28;20586;-75
2024/01/14 00:08:04;;;;;;;10.83;5.10;;;;;;;;;;6291395;28;20035;-75
2024/01/14 00:11:04;;;;;;;8.97;5.00;;;;;;;;;;6282310;28;20017;-75
2024/01/14 00:14:04;;;;;;;8.97;5.13;;;;;;;;;;6271122;28;20036;-76
2024/01/14 00:17:04;;;;;;;7.67;5.00;;;;;;;;;;6287399;28;20096;-75
2024/01/14 00:20:05;;;;;;;11.73;5.17;;;;;;;;;;6289616;28;20024;-75
2024/01/14 00:23:05;;;;;;;8.37;4.67;;;;;;;;;;6284675;28;20095;-75
2024/01/14 00:26:06;;;;;;;10.00;5.07;;;;;;;;;;6295320;28;20024;-75
2024/01/14 00:29:06;;;;;;;9.73;4.50;;;;;;;;;;6287123;28;20031;-75
2024/01/14 00:32:06;;;;;;;10.63;4.60;;;;;;;;;;6285933;28;20055;-74
2024/01/14 00:35:07;;;;;;;11.17;5.30;;;;;;;;;;6268157;28;20041;-75
2024/01/14 00:38:07;;;;;;;11.33;5.33;;;;;;;;;;6269664;28;20480;-75
2024/01/14 00:41:08;;;;;;;8.67;4.57;;;;;;;;;;6240059;28;20522;-75
2024/01/14 00:44:08;;;;;;;8.00;4.47;;;;;;;;;;6264170;28;20013;-75
2024/01/14 00:47:08;;;;;;;9.60;4.90;;;;;;;;;;6266114;28;20035;-75
2024/01/14 00:50:09;;;;;;;8.20;4.93;;;;;;;;;;6274729;28;20108;-75
2024/01/14 00:53:09;;;;;;;8.80;4.37;;;;;;;;;;6272273;28;20028;-75
2024/01/14 00:56:10;;;;;;;9.53;4.77;;;;;;;;;;6256760;28;20025;-75
2024/01/14 00:59:10;;;;;;;9.10;4.50;;;;;;;;;;6273485;28;20028;-75
2024/01/14 01:02:10;;;;;;;9.13;4.73;;;;;;;;;;6262252;28;20112;-75
2024/01/14 01:05:10;;;;;;;8.93;4.63;;;;;;;;;;6269839;28;20021;-75
2024/01/14 01:08:11;;;;;;;8.93;4.70;;;;;;;;;;6267938;28;20120;-75
2024/01/14 01:11:14;;;;;;;11.80;5.23;;;;;;;;;;6268265;28;20020;-75
2024/01/14 01:14:15;;;;;;;10.07;5.13;;;;;;;;;;6265943;28;20128;-75
2024/01/14 01:17:15;;;;;;;10.83;5.17;;;;;;;;;;6265265;28;20017;-75
2024/01/14 01:20:15;;;;;;;7.93;4.70;;;;;;;;;;6269668;28;20143;-75
2024/01/14 01:23:15;;;;;;;7.97;4.90;;;;;;;;;;6270170;28;20016;-75
2024/01/14 01:26:16;;;;;;;8.90;4.47;;;;;;;;;;6273607;28;20221;-75
2024/01/14 01:29:16;;;;;;;9.83;5.07;;;;;;;;;;6255194;28;20071;-75
2024/01/14 01:32:16;;;;;;;7.93;4.50;;;;;;;;;;6270503;28;20021;-75
2024/01/14 01:35:16;;;;;;;10.57;5.23;;;;;;;;;;6294325;28;20451;-75
2024/01/14 01:38:17;;;;;;;7.93;4.17;;;;;;;;;;6290576;28;20065;-75
2024/01/14 01:41:17;;;;;;;9.73;5.33;;;;;;;;;;6289195;28;20029;-75
2024/01/14 01:44:18;;;;;;;9.83;5.17;;;;;;;;;;6278703;28;20457;-75
2024/01/14 01:47:18;;;;;;;10.73;5.00;;;;;;;;;;6287378;28;20384;-75
2024/01/14 01:50:18;;;;;;;10.07;4.43;;;;;;;;;;6289306;28;20099;-75
2024/01/14 01:53:19;;;;;;;10.70;4.63;;;;;;;;;;6263091;28;20035;-75
2024/01/14 01:56:19;;;;;;;10.20;4.63;;;;;;;;;;6277090;28;20027;-75
2024/01/14 01:59:21;;;;;;;8.57;4.57;;;;;;;;;;6289889;28;20077;-75
2024/01/14 02:02:21;;;;;;;8.73;4.25;;;;;;;;;;6296050;28;20016;-75
2024/01/14 02:05:22;;;;;;;8.37;4.80;;;;;;;;;;6288636;28;20510;-75
2024/01/14 02:08:22;;;;;;;8.27;4.73;;;;;;;;;;6287380;28;20473;-75
2024/01/14 02:11:22;;;;;;;8.30;4.63;;;;;;;;;;6286144;28;20082;-75
2024/01/14 02:14:22;;;;;;;9.93;4.80;;;;;;;;;;6287231;28;20162;-75
2024/01/14 02:17:23;;;;;;;8.23;4.33;;;;;;;;;;6280150;28;20017;-76
2024/01/14 02:20:23;;;;;;;8.73;4.63;;;;;;;;;;6294487;28;20024;-76
2024/01/14 02:23:25;;;;;;;8.60;4.47;;;;;;;;;;6292021;28;20067;-75
2024/01/14 02:26:25;;;;;;;9.82;4.97;;;;;;;;;;6289577;28;20017;-75
2024/01/14 02:29:28;;;;;;;6.93;4.47;;;;;;;;;;6293388;28;20387;-76
2024/01/14 02:32:28;;;;;;;8.73;4.70;;;;;;;;;;6282966;28;20020;-76
2024/01/14 02:35:28;;;;;;;8.50;4.67;;;;;;;;;;6269581;28;20029;-76
2024/01/14 02:38:28;;;;;;;8.83;4.80;;;;;;;;;;6272474;28;20096;-75
2024/01/14 02:41:29;;;;;;;8.97;4.87;;;;;;;;;;6270264;28;20477;-75
2024/01/14 02:44:29;;;;;;;7.60;4.53;;;;;;;;;;6272527;28;20436;-75
2024/01/14 02:47:29;;;;;;;9.63;5.10;;;;;;;;;;6252099;28;20074;-75
2024/01/14 02:50:30;;;;;;;8.43;4.77;;;;;;;;;;6269454;28;20027;-76
2024/01/14 02:53:30;;;;;;;7.83;4.80;;;;;;;;;;6265988;28;20037;-76
2024/01/14 02:56:30;;;;;;;8.27;4.33;;;;;;;;;;6269827;28;20385;-76
2024/01/14 02:59:32;;;;;;;8.07;4.30;;;;;;;;;;6272123;28;20099;-75
2024/01/14 03:02:33;;;;;;;8.38;4.68;;;;;;;;;;6270487;28;20025;-76
2024/01/14 03:05:33;;;;;;;8.87;4.93;;;;;;;;;;6267797;28;20040;-75
2024/01/14 03:08:33;;;;;;;8.00;4.37;;;;;;;;;;6263693;28;20024;-75
2024/01/14 03:11:33;;;;;;;7.97;4.07;;;;;;;;;;6267512;28;20032;-76
2024/01/14 03:14:34;;;;;;;7.47;4.27;;;;;;;;;;6257579;28;20063;-75
2024/01/14 03:17:34;;;;;;;7.10;4.00;;;;;;;;;;6249319;28;20432;-75
2024/01/14 03:20:35;;;;;;;6.60;4.23;;;;;;;;;;6267858;28;20024;-75
2024/01/14 03:23:35;;;;;;;6.73;4.00;;;;;;;;;;6270372;28;20512;-75
2024/01/14 03:26:35;;;;;;;6.87;3.23;;;;;;;;;;6267267;28;20048;-75
2024/01/14 03:29:35;;;;;;;5.67;3.43;;;;;;;;;;6271674;28;20017;-75
2024/01/14 03:32:36;;;;;;;6.20;3.77;;;;;;;;;;6268764;28;20047;-75
2024/01/14 03:35:36;;;;;;;7.03;3.60;;;;;;;;;;6289395;28;20032;-75
2024/01/14 03:38:36;;;;;;;6.67;3.27;;;;;;;;;;6293436;28;20461;-75
2024/01/14 03:41:37;;;;;;;5.73;3.13;;;;;;;;;;6284921;28;20098;-75
2024/01/14 03:44:37;;;;;;;5.17;3.13;;;;;;;;;;6287976;28;20020;-75
2024/01/14 03:47:37;;;;;;;6.27;3.10;;;;;;;;;;6287353;28;20029;-75
2024/01/14 03:50:37;;;;;;;4.23;2.90;;;;;;;;;;6295331;28;20392;-75
2024/01/14 03:53:38;;;;;;;5.97;2.73;;;;;;;;;;6295164;28;20487;-75
2024/01/14 03:56:38;;;;;;;5.50;3.03;;;;;;;;;;6285780;28;20138;-75
2024/01/14 03:59:38;;;;;;;4.70;2.73;;;;;;;;;;6287641;28;20032;-75
2024/01/14 04:02:39;;;;;;;4.63;2.77;;;;;;;;;;6286337;28;20066;-75
2024/01/14 04:05:39;;;;;;;4.10;2.60;;;;;;;;;;6273255;28;20035;-75
2024/01/14 04:08:39;;;;;;;4.27;2.53;;;;;;;;;;6279757;28;20025;-75
2024/01/14 04:11:39;;;;;;;4.07;2.57;;;;;;;;;;6291372;28;20033;-75
2024/01/14 04:14:40;;;;;;;4.40;2.80;;;;;;;;;;6293690;28;20492;-75
2024/01/14 04:17:40;;;;;;;4.17;2.20;;;;;;;;;;6282543;28;20416;-75
2024/01/14 04:20:40;;;;;;;5.13;2.43;;;;;;;;;;6297438;28;20009;-75
2024/01/14 04:23:41;;;;;;;3.03;2.10;;;;;;;;;;6299447;28;20026;-75
2024/01/14 04:26:41;;;;;;;4.10;2.00;;;;;;;;;;6291215;28;20477;-75
2024/01/14 04:29:41;;;;;;;4.80;2.00;;;;;;;;;;6300357;28;20111;-75
2024/01/14 04:32:41;;;;;;;4.30;2.17;;;;;;;;;;6290168;28;20090;-75
2024/01/14 04:35:42;;;;;;;3.87;2.13;;;;;;;;;;6297846;28;20036;-75
2024/01/14 04:38:42;;;;;;;4.13;2.20;;;;;;;;;;6289817;28;20385;-75
2024/01/14 04:41:42;;;;;;;3.57;2.20;;;;;;;;;;6291664;28;20109;-75
2024/01/14 04:44:43;;;;;;;3.73;1.80;;;;;;;;;;6299219;28;20031;-75
2024/01/14 04:47:43;;;;;;;4.13;2.23;;;;;;;;;;6297898;28;20020;-75
2024/01/14 04:50:43;;;;;;;3.73;2.10;;;;;;;;;;6293288;28;20465;-75
2024/01/14 04:53:43;;;;;;;3.47;2.17;;;;;;;;;;6291884;28;20036;-75
2024/01/14 04:56:44;;;;;;;2.77;1.83;;;;;;;;;;6285893;28;20032;-74
2024/01/14 04:59:44;;;;;;;3.37;1.80;;;;;;;;;;6297617;28;20024;-75
2024/01/14 05:02:45;;;;;;;3.03;1.80;;;;;;;;;;6290079;28;20512;-75
2024/01/14 05:05:45;;;;;;;4.20;2.03;;;;;;;;;;6291383;28;20393;-75
2024/01/14 05:08:45;;;;;;;3.03;2.03;;;;;;;;;;6287803;28;20028;-75
2024/01/14 05:11:45;;;;;;;2.50;1.53;;;;;;;;;;6290301;28;20092;-75
2024/01/14 05:14:46;;;;;;;2.37;1.23;;;;;;;;;;6282349;28;20037;-75
2024/01/14 05:17:46;;;;;;;2.93;1.80;;;;;;;;;;6284320;28;20128;-75
2024/01/14 05:20:46;;;;;;;3.30;1.50;;;;;;;;;;6282561;28;20033;-75
2024/01/14 05:23:46;;;;;;;2.60;1.40;;;;;;;;;;6289513;28;20032;-75
2024/01/14 05:26:47;;;;;;;2.00;1.37;;;;;;;;;;6279723;28;20433;-75
2024/01/14 05:29:47;;;;;;;2.03;1.50;;;;;;;;;;6281350;28;20024;-75
2024/01/14 05:32:48;;;;;;;3.23;1.43;;;;;;;;;;6284385;28;20665;-75
2024/01/14 05:35:48;;;;;;;2.90;1.60;;;;;;;;;;6317329;28;20075;-75
2024/01/14 05:38:48;;;;;;;3.20;1.30;;;;;;;;;;6314513;28;20035;-75
2024/01/14 05:41:49;;;;;;;2.60;1.37;;;;;;;;;;6315306;28;20461;-75
2024/01/14 05:44:49;;;;;;;2.80;1.40;;;;;;;;;;6315293;28;20021;-75
2024/01/14 05:47:50;;;;;;;1.83;1.27;;;;;;;;;;6313862;28;20123;-75
2024/01/14 05:50:50;;;;;;;2.23;1.47;;;;;;;;;;6308887;28;20024;-75
2024/01/14 05:53:50;;;;;;;1.70;1.10;;;;;;;;;;6310654;28;20024;-75
2024/01/14 05:56:51;;;;;;;2.80;1.50;;;;;;;;;;6314968;28;20112;-75
2024/01/14 05:59:51;;;;;;;2.80;1.37;;;;;;;;;;6310783;28;20477;-75
2024/01/14 06:02:51;;;;;;;2.07;1.30;;;;;;;;;;6313659;28;20530;-75
2024/01/14 06:05:51;;;;;;;2.07;1.10;;;;;;;;;;6320240;28;20121;-74
2024/01/14 06:08:52;;;;;;;2.20;1.03;;;;;;;;;;6309069;28;20032;-75
2024/01/14 06:11:52;;;;;;;1.60;1.10;;;;;;;;;;6317080;28;20019;-75
2024/01/14 06:14:53;;;;;;;1.80;1.10;;;;;;;;;;6314570;28;20032;-75
2024/01/14 06:17:53;;;;;;;2.53;1.20;;;;;;;;;;6313743;28;20055;-75
2024/01/14 06:20:55;;;;;;;1.93;1.13;;;;;;;;;;6315425;28;20024;-75
2024/01/14 06:23:56;;;;;;;2.38;1.30;;;;;;;;;;6309747;28;20046;-75
2024/01/14 06:26:56;;;;;;;2.47;1.23;;;;;;;;;;6321385;28;20016;-75
2024/01/14 06:29:56;;;;;;;3.00;1.63;;;;;;;;;;6306383;28;20059;-75
2024/01/14 06:32:57;;;;;;;1.70;1.23;;;;;;;;;;6310928;28;20052;-75
2024/01/14 06:35:57;;;;;;;2.13;1.17;;;;;;;;;;6312504;28;20036;-75
2024/01/14 06:38:57;;;;;;;1.77;1.10;;;;;;;;;;6319512;28;20034;-75
2024/01/14 06:41:57;;;;;;;2.23;1.43;;;;;;;;;;6304366;28;20457;-75
2024/01/14 06:44:58;;;;;;;2.83;1.33;;;;;;;;;;6298869;28;20506;-75
2024/01/14 06:47:58;;;;;;;1.63;1.07;;;;;;;;;;6312296;28;20440;-75
2024/01/14 06:51:00;;;;;;;2.27;1.23;;;;;;;;;;6319089;28;20024;-75
2024/01/14 06:54:00;;;;;;;1.63;1.35;;;;;;;;;;6300774;28;20028;-74
2024/01/14 06:57:00;;;;;;;2.57;1.27;;;;;;;;;;6312072;28;20043;-74
2024/01/14 07:00:01;;;;;;;2.23;1.27;;;;;;;;;;6321812;28;20077;-74
2024/01/14 07:03:01;;;;;;;2.25;1.33;;;;;;;;;;6306719;28;20036;-74
2024/01/14 07:06:02;;;;;;;2.17;1.33;;;;;;;;;;6317524;28;20031;-74
2024/01/14 07:09:02;;;;;;;1.83;1.20;;;;;;;;;;6343445;27;20024;-74
2024/01/14 07:12:03;;;;;;;1.27;0.97;;;;;;;;;;6337714;28;20491;-74
2024/01/14 07:15:03;;;;;;;2.03;1.13;;;;;;;;;;6334697;28;20051;-74
2024/01/14 07:18:04;;;;;;;1.77;0.97;;;;;;;;;;6319977;28;20266;-75
2024/01/14 07:21:07;;;;;;;2.10;1.42;;;;;;;;;;6342170;27;20059;-75
2024/01/14 07:24:07;;;;;;;1.52;1.17;;;;;;;;;;6331202;28;20059;-75
2024/01/14 07:27:07;;;;;;;2.20;1.40;;;;;;;;;;6340363;27;20020;-76
2024/01/14 07:30:08;;;;;;;2.13;1.43;;;;;;;;;;6333685;28;20533;-76
2024/01/14 07:33:08;;;;;;;2.33;1.10;;;;;;;;;;6331010;28;20048;-76
2024/01/14 07:36:09;;;;;;;2.40;1.27;;;;;;;;;;6313994;28;20039;-76
2024/01/14 07:39:09;;;;;;;2.57;1.37;;;;;;;;;;6310435;28;20508;-76
2024/01/14 07:42:10;;;;;;;1.70;1.10;;;;;;;;;;6303975;28;20098;-75
2024/01/14 07:45:10;;;;;;;1.88;1.17;;;;;;;;;;6315617;28;20066;-75
2024/01/14 07:48:11;;;;;;;1.67;1.17;;;;;;;;;;6310674;28;20024;-76
2024/01/14 07:51:11;;;;;;;2.43;1.37;;;;;;;;;;6319711;28;20052;-75
2024/01/14 07:54:12;;;;;;;3.57;1.90;;;;;;;;;;6319883;28;20060;-76
2024/01/14 07:57:12;;;;;;;3.28;1.88;;;;;;;;;;6315120;28;20024;-75
2024/01/14 08:00:13;;;;;;;2.27;1.57;;;;;;;;;;6320735;28;20085;-75
2024/01/14 08:03:13;;;;;;;2.07;1.50;;;;;;;;;;6318070;28;20028;-76
2024/01/14 08:06:18;;;;;;;2.17;1.37;;;;;;;;;;6319267;28;20009;-77
2024/01/14 08:09:20;;;;;;;2.10;1.23;;;;;;;;;;6320291;28;20045;-77
2024/01/14 08:12:20;;;;;;;2.70;1.52;;;;;;;;;;6290595;28;20024;-77
2024/01/14 08:15:20;;;;;;;2.23;1.10;;;;;;;;;;6296366;28;20543;-77
2024/01/14 08:18:20;;;;;;;3.57;1.40;;;;;;;;;;6315018;28;20099;-77
2024/01/14 08:21:21;;;;;;;1.27;1.00;;;;;;;;;;6310656;28;20024;-77
2024/01/14 08:24:21;;;;;;;1.70;1.00;;;;;;;;;;6317046;28;20122;-76
2024/01/14 08:27:21;;;;;;;1.60;1.17;;;;;;;;;;6318102;28;20031;-76
2024/01/14 08:30:21;;;;;;;1.70;1.10;;;;;;;;;;6311308;28;20473;-76
2024/01/14 08:33:22;;;;;;;1.27;1.00;;;;;;;;;;6313430;28;20155;-77
2024/01/14 08:36:22;;;;;;;1.50;1.10;;;;;;;;;;6320316;28;20031;-76
2024/01/14 08:39:22;;;;;;;1.87;1.00;;;;;;;;;;6319168;28;20025;-76
2024/01/14 08:42:22;;;;;;;2.07;1.10;;;;;;;;;;6312370;28;20027;-77
2024/01/14 08:45:23;;;;;;;1.73;1.07;;;;;;;;;;6324665;28;20402;-77
2024/01/14 08:48:23;;;;;;;1.70;1.00;;;;;;;;;;6318128;28;20021;-80
2024/01/14 08:51:23;;;;;;;1.50;0.73;;;;;;;;;;6315741;28;20499;-81
2024/01/14 08:54:24;;;;;;;2.83;1.00;;;;;;;;;;6294379;28;20031;-82
2024/01/14 08:57:24;;;;;;;1.70;0.90;;;;;;;;;;6312563;28;20031;-77
2024/01/14 09:00:24;;;;;;;2.07;1.10;;;;;;;;;;6299837;28;20036;-76
2024/01/14 09:03:25;;;;;;;1.93;0.70;;;;;;;;;;6309163;28;20114;-77
2024/01/14 09:06:25;;;;;;;1.40;0.80;;;;;;;;;;6322012;28;20028;-74
2024/01/14 09:09:25;;;;;;;2.60;1.20;;;;;;;;;;6318721;28;20016;-74
2024/01/14 09:12:25;;;;;;;2.27;1.20;;;;;;;;;;6314573;28;20023;-82
2024/01/14 09:15:25;;;;;;;1.97;1.07;;;;;;;;;;6308275;28;20465;-78
2024/01/14 09:18:26;;;;;;;2.17;1.10;;;;;;;;;;6310681;28;20408;-78
2024/01/14 09:21:26;;;;;;;1.60;0.90;;;;;;;;;;6316599;28;20039;-77
2024/01/14 09:24:26;;;;;;;1.80;1.10;;;;;;;;;;6309402;28;20054;-78
2024/01/14 09:27:30;;;;;;;1.37;0.93;;;;;;;;;;6309971;28;20020;-78
2024/01/14 09:30:30;;;;;;;1.10;0.90;;;;;;;;;;6310971;28;20081;-78
2024/01/14 09:33:31;;;;;;;1.53;0.90;;;;;;;;;;6318584;28;20039;-78
2024/01/14 09:36:32;;;;;;;1.17;0.80;;;;;;;;;;6337141;28;20035;-79
2024/01/14 09:39:32;;;;;;;1.38;0.93;;;;;;;;;;6321640;28;20122;-79
2024/01/14 09:42:34;;;;;;;1.07;0.80;;;;;;;;;;6344047;28;20065;-79
2024/01/14 09:45:34;;;;;;;;;;;;;;;;;;6340702;28;20028;-79
2024/01/14 09:48:36;;;;;;;1.17;0.80;;;;;;;;;;6344372;28;19919;-79
2024/01/14 09:51:36;;;;;;;1.15;0.70;;;;;;;;;;6335930;28;20027;-79
2024/01/14 09:54:36;;;;;;;1.33;1.00;;;;;;;;;;6320157;28;20036;-79
2024/01/14 09:57:39;;;;;;;1.10;0.80;;;;;;;;;;6317127;28;20024;-80
2024/01/14 10:00:40;;;;;;;2.05;1.10;;;;;;;;;;6321450;28;20050;-79
2024/01/14 10:03:41;;;;;;;2.08;1.10;;;;;;;;;;6335558;28;20023;-80
2024/01/14 10:06:43;;;;;;;1.57;1.00;;;;;;;;;;6342835;28;20387;-80
2024/01/14 10:09:44;;;;;;;1.58;1.02;;;;;;;;;;6322076;28;20024;-81
2024/01/14 10:12:44;;;;;;;1.43;0.90;;;;;;;;;;6336531;28;20499;-80
2024/01/14 10:15:44;;;;;;;1.43;0.80;;;;;;;;;;6333526;28;20103;-81
2024/01/14 10:18:45;;;;;;;1.30;0.97;;;;;;;;;;6332777;28;20407;-82
2024/01/14 10:21:45;;;;;;;1.87;0.90;;;;;;;;;;6336835;28;20016;-82
2024/01/14 10:24:49;;;;;;;1.57;1.00;;;;;;;;;;6333114;28;20377;-85
2024/01/14 10:27:49;;;;;;;1.50;0.95;;;;;;;;;;6321165;28;20019;-85
2024/01/14 10:30:53;;;;;;;2.33;1.13;;;;;;;;;;6328232;28;20024;-85
2024/01/14 10:33:53;;;;;;;1.83;1.23;;;;;;;;;;6333895;28;20051;-83
2024/01/14 10:36:59;;;;;;;1.67;1.20;;;;;;;;;;6319168;28;20453;-85
2024/01/14 10:40:00;;;;;;;0.68;0.57;;;;;;;;;;6308862;28;20469;-85
2024/01/14 10:43:02;;;;;;;1.00;0.75;;;;;;;;;;6309656;28;20037;-85
2024/01/14 10:46:02;;;;;;;1.25;0.85;;;;;;;;;;6325697;28;20107;-86
2024/01/14 10:49:07;;;;;;;1.53;0.90;;;;;;;;;;6327019;28;20040;-85
2024/01/14 10:52:09;;;;;;;1.90;0.93;;;;;;;;;;6328355;28;20043;-85
2024/01/14 10:55:16;;;;;;;1.42;1.00;;;;;;;;;;6335143;28;20019;-85
2024/01/14 10:58:27;;;;;;;1.88;1.00;;;;;;;;;;6315760;28;20020;-85
2024/01/14 11:01:30;;;;;;;2.00;0.90;;;;;;;;;;6318361;28;20019;-85
2024/01/14 11:04:30;;;;;;;1.88;0.90;;;;;;;;;;6344431;28;20107;-85
2024/01/14 11:07:32;;;;;;;1.63;1.10;;;;;;;;;;6341652;28;20487;-85
2024/01/14 11:10:32;;;;;;;;;;;;;;;;;;6321848;28;20437;-86
2024/01/14 11:13:51;;;;;;;1.40;0.88;;;;;;;;;;6328333;28;19919;-86
2024/01/14 11:20:40;;;;;;;1.65;1.13;;;;;;;;;;6327990;28;20032;-86
2024/01/14 11:23:41;;;;;;;2.08;1.35;;;;;;;;;;6332953;28;20046;-90
2024/01/14 11:26:41;;;;;;;2.47;1.40;;;;;;;;;;6320861;28;20027;-82
2024/01/14 11:29:42;;;;;;;2.53;1.60;;;;;;;;;;6343118;28;20520;-82
2024/01/14 11:32:42;;;;;;;2.45;1.42;;;;;;;;;;6326416;28;20052;-85
2024/01/14 11:35:44;;;;;;;2.30;1.52;;;;;;;;;;6310662;28;20058;-85
2024/01/14 11:38:44;;;;;;;2.87;1.70;;;;;;;;;;6312526;28;20476;-83
2024/01/14 11:41:44;;;;;;;2.47;1.53;;;;;;;;;;6303387;28;20438;-84
2024/01/14 11:44:44;;;;;;;2.33;1.50;;;;;;;;;;6315212;28;20025;-85
2024/01/14 11:47:45;;;;;;;2.73;1.57;;;;;;;;;;6317521;28;20126;-85
2024/01/14 11:50:50;;;;;;;2.20;1.45;;;;;;;;;;6308457;28;20023;-85
2024/01/14 11:53:50;;;;;;;2.92;1.70;;;;;;;;;;6306597;28;20386;-85
2024/01/14 11:56:51;;;;;;;3.13;1.83;;;;;;;;;;6318188;28;20020;-85
2024/01/14 11:59:51;;;;;;;3.63;2.17;;;;;;;;;;6309730;28;20048;-86
2024/01/14 12:03:04;;;;;;;2.83;1.90;;;;;;;;;;6313409;28;20028;-85
2024/01/14 12:06:05;;;;;;;4.22;2.10;;;;;;;;;;6311521;28;20505;-84
2024/01/14 12:09:09;;;;;;;3.60;2.33;;;;;;;;;;6310474;28;20093;-79
2024/01/14 12:12:09;;;;;;;2.90;1.92;;;;;;;;;;6312534;28;20029;-79
2024/01/14 12:15:10;;;;;;;3.50;1.90;;;;;;;;;;6309155;28;20073;-81
2024/01/14 12:18:10;;;;;;;3.47;1.70;;;;;;;;;;6305231;28;20551;-80
2024/01/14 12:21:11;;;;;;;4.00;1.87;;;;;;;;;;6317081;28;20024;-82
2024/01/14 12:24:11;;;;;;;2.63;1.80;;;;;;;;;;6318926;28;20024;-81
2024/01/14 12:27:12;;;;;;;2.63;1.60;;;;;;;;;;6310109;28;20035;-80
2024/01/14 12:30:22;;;;;;;2.53;1.60;;;;;;;;;;6309188;28;20026;-82
2024/01/14 12:33:22;;;;;;;2.63;1.77;;;;;;;;;;6300311;28;20048;-79
2024/01/14 12:36:22;;;;;;;2.77;1.77;;;;;;;;;;6319203;28;20035;-79
2024/01/14 12:39:23;;;;;;;2.50;1.60;;;;;;;;;;6282141;28;20028;-85
2024/01/14 12:42:24;;;;;;;3.88;1.55;;;;;;;;;;6283098;28;20031;-80
2024/01/14 12:45:24;;;;;;;3.00;1.60;;;;;;;;;;6315168;28;20028;-79
2024/01/14 12:48:24;;;;;;;2.77;1.57;;;;;;;;;;6313158;28;20609;-84
2024/01/14 12:51:25;;;;;;;2.07;1.50;;;;;;;;;;6300475;28;20020;-84
2024/01/14 12:54:25;;;;;;;2.07;1.57;;;;;;;;;;6289863;28;20035;-77
2024/01/14 12:57:26;;;;;;;2.80;1.70;;;;;;;;;;6300560;28;20328;-75
2024/01/14 13:00:27;;;;;;;3.67;1.80;;;;;;;;;;6315181;28;20460;-77
2024/01/14 13:03:27;;;;;;;2.67;1.55;;;;;;;;;;6288995;28;20062;-76
2024/01/14 13:06:28;;;;;;;5.20;2.77;;;;;;;;;;6302460;28;20036;-76
2024/01/14 13:09:28;;;;;;;3.80;2.60;;;;;;;;;;6316585;28;20066;-76
2024/01/14 13:12:28;;;;;;;3.63;2.37;;;;;;;;;;6299991;28;20460;-77
2024/01/14 13:15:28;;;;;;;4.33;2.37;;;;;;;;;;6293089;28;20020;-77
2024/01/14 13:18:28;;;;;;;3.30;1.97;;;;;;;;;;6301400;28;20027;-79
2024/01/14 13:21:29;;;;;;;3.40;2.40;;;;;;;;;;6314640;28;20012;-78
2024/01/14 13:24:29;;;;;;;3.47;2.13;;;;;;;;;;6309599;28;20032;-78
2024/01/14 13:27:30;;;;;;;3.40;2.07;;;;;;;;;;6317063;28;20337;-76
2024/01/14 13:30:30;;;;;;;3.88;2.05;;;;;;;;;;6305635;28;20385;-77
2024/01/14 13:33:30;;;;;;;3.67;2.27;;;;;;;;;;6310080;28;20462;-77
2024/01/14 13:36:31;;;;;;;3.77;2.30;;;;;;;;;;6320710;28;20035;-77
2024/01/14 13:39:31;;;;;;;4.27;2.47;;;;;;;;;;6310208;28;20367;-75
2024/01/14 13:42:32;;;;;;;3.47;2.57;;;;;;;;;;6323559;28;20032;-75
2024/01/14 13:45:32;;;;;;;3.40;2.13;;;;;;;;;;6311608;28;20040;-75
2024/01/14 13:48:32;;;;;;;3.63;2.33;;;;;;;;;;6311934;28;20032;-75
2024/01/14 13:51:33;;;;;;;4.17;2.30;;;;;;;;;;6321897;28;20115;-75
2024/01/14 13:54:33;;;;;;;3.47;2.20;;;;;;;;;;6314189;28;20051;-75
2024/01/14 13:57:33;;;;;;;4.50;2.43;;;;;;;;;;6319303;28;20051;-75
2024/01/14 14:00:34;;;;;;;3.73;2.30;;;;;;;;;;6313202;28;20015;-77
2024/01/14 14:03:34;;;;;;;3.87;2.33;;;;;;;;;;6313680;28;20134;-77
2024/01/14 14:06:35;;;;;;;3.27;2.03;;;;;;;;;;6292814;28;20016;-77
2024/01/14 14:09:35;;;;;;;4.13;2.30;;;;;;;;;;6311923;28;20093;-77
2024/01/14 14:12:36;;;;;;;3.57;2.10;;;;;;;;;;6298903;28;20069;-77
2024/01/14 14:15:37;;;;;;;4.13;2.35;;;;;;;;;;6314362;28;20023;-77
2024/01/14 14:18:37;;;;;;;4.37;2.40;;;;;;;;;;6310970;28;20020;-77
2024/01/14 14:21:37;;;;;;;5.50;3.30;;;;;;;;;;6314602;28;20032;-77
2024/01/14 14:24:39;;;;;;;5.67;3.20;;;;;;;;;;6320828;28;20032;-77
2024/01/14 14:27:39;;;;;;;5.80;2.70;;;;;;;;;;6306158;28;20027;-77
2024/01/14 14:30:39;;;;;;;3.40;2.37;;;;;;;;;;6318885;28;20031;-77
2024/01/14 14:33:40;;;;;;;4.67;2.57;;;;;;;;;;6312993;28;20051;-75
2024/01/14 14:36:40;;;;;;;8.23;4.20;;;;;;;;;;6314233;28;20508;-78
2024/01/14 14:39:42;;;;;;;8.03;4.70;;;;;;;;;;6309800;28;20468;-78
2024/01/14 14:42:42;;;;;;;;;;;;;;;;;;6300100;28;20085;-78
2024/01/14 14:45:42;;;;;;;3.17;2.38;;;;;;;;;;6303497;28;19932;-78
2024/01/14 14:48:44;;;;;;;4.70;2.60;;;;;;;;;;6301570;28;20111;-77
2024/01/14 14:51:44;;;;;;;4.75;2.80;;;;;;;;;;6318979;28;20024;-79
2024/01/14 14:54:44;;;;;;;3.70;2.30;;;;;;;;;;6312678;28;20063;-77
2024/01/14 14:57:45;;;;;;;4.33;2.57;;;;;;;;;;6311260;28;20016;-77
2024/01/14 15:00:45;;;;;;;4.47;2.20;;;;;;;;;;6309571;28;20024;-78
2024/01/14 15:03:45;;;;;;;3.73;2.43;;;;;;;;;;6315474;28;20040;-78
2024/01/14 15:06:45;;;;;;;4.27;2.40;;;;;;;;;;6320725;28;20097;-79
2024/01/14 15:09:46;;;;;;;3.60;2.13;;;;;;;;;;6315756;28;20103;-78
2024/01/14 15:12:49;;;;;;;4.50;2.40;;;;;;;;;;6304866;28;20024;-78
2024/01/14 15:15:49;;;;;;;4.88;2.83;;;;;;;;;;6291229;28;20039;-82
2024/01/14 15:18:50;;;;;;;3.57;2.23;;;;;;;;;;6290664;28;20024;-83
2024/01/14 15:21:50;;;;;;;3.30;2.00;;;;;;;;;;6305198;28;20030;-82
2024/01/14 15:24:50;;;;;;;3.20;2.30;;;;;;;;;;6320033;28;20123;-83
2024/01/14 15:27:51;;;;;;;3.33;2.17;;;;;;;;;;6320011;28;20012;-83
2024/01/14 15:30:51;;;;;;;4.33;2.37;;;;;;;;;;6310470;28;20042;-83
2024/01/14 15:33:51;;;;;;;3.43;2.30;;;;;;;;;;6295456;28;20052;-83
2024/01/14 15:36:52;;;;;;;4.37;2.37;;;;;;;;;;6294153;28;20101;-82
2024/01/14 15:39:52;;;;;;;3.33;2.20;;;;;;;;;;6296191;28;20020;-83
2024/01/14 15:42:52;;;;;;;3.80;2.43;;;;;;;;;;6296005;28;20029;-83
2024/01/14 15:45:52;;;;;;;3.10;2.03;;;;;;;;;;6272365;28;20472;-83
2024/01/14 15:48:54;;;;;;;3.60;2.20;;;;;;;;;;6289069;28;20025;-83
2024/01/14 15:51:54;;;;;;;;;;;;;;;;;;6270351;28;20028;-83
2024/01/14 15:54:54;;;;;;;3.13;1.65;;;;;;;;;;6295250;28;20398;-83
2024/01/14 15:57:55;;;;;;;3.50;2.13;;;;;;;;;;6282075;28;20049;-82
2024/01/14 16:00:56;;;;;;;3.40;1.83;;;;;;;;;;6289216;28;20095;-82
2024/01/14 16:03:56;;;;;;;3.78;2.30;;;;;;;;;;6288354;28;20020;-82
2024/01/14 16:06:56;;;;;;;4.70;2.63;;;;;;;;;;6291349;28;20029;-83
2024/01/14 16:09:56;;;;;;;4.97;2.60;;;;;;;;;;6292566;28;20484;-83
2024/01/14 16:12:57;;;;;;;4.20;2.37;;;;;;;;;;6289801;28;20458;-84
2024/01/14 16:15:58;;;;;;;4.88;2.47;;;;;;;;;;6279286;28;20024;-81
2024/01/14 16:18:58;;;;;;;3.33;2.27;;;;;;;;;;6275901;28;20143;-82
2024/01/14 16:21:58;;;;;;;4.10;2.50;;;;;;;;;;6279226;28;20021;-82
2024/01/14 16:24:58;;;;;;;3.10;2.00;;;;;;;;;;6294525;28;20453;-82
2024/01/14 16:27:59;;;;;;;3.83;2.07;;;;;;;;;;6286334;28;20036;-82
2024/01/14 16:30:59;;;;;;;4.00;2.50;;;;;;;;;;6281641;28;20130;-81
2024/01/14 16:34:02;;;;;;;4.90;2.50;;;;;;;;;;6289339;28;20516;-81
2024/01/14 16:37:02;;;;;;;4.72;2.95;;;;;;;;;;6299814;28;20059;-82
2024/01/14 16:40:04;;;;;;;3.30;2.43;;;;;;;;;;6283566;28;20033;-81
2024/01/14 16:43:04;;;;;;;4.25;2.42;;;;;;;;;;6296149;28;20461;-81
2024/01/14 16:46:04;;;;;;;3.70;2.37;;;;;;;;;;6294064;28;20029;-82
2024/01/14 16:49:07;;;;;;;3.83;2.33;;;;;;;;;;6276053;28;20021;-81
2024/01/14 16:52:08;;;;;;;4.55;2.70;;;;;;;;;;6277262;28;20103;-82
2024/01/14 16:55:08;;;;;;;4.03;2.53;;;;;;;;;;6289301;28;20048;-84
2024/01/14 16:58:08;;;;;;;3.47;2.20;;;;;;;;;;6294822;28;20031;-85
2024/01/14 17:01:09;;;;;;;3.43;2.27;;;;;;;;;;6294054;28;20024;-84
2024/01/14 17:04:09;;;;;;;3.90;2.20;;;;;;;;;;6277987;28;20035;-84
2024/01/14 17:07:09;;;;;;;3.07;2.13;;;;;;;;;;6289661;28;20067;-85
2024/01/14 17:10:09;;;;;;;4.23;2.37;;;;;;;;;;6283413;28;20465;-84
2024/01/14 17:13:10;;;;;;;3.27;2.07;;;;;;;;;;6289072;28;20017;-85
2024/01/14 17:16:19;;;;;;;4.03;2.50;;;;;;;;;;6295844;28;20031;-84
2024/01/14 17:19:20;;;;;;;4.28;2.15;;;;;;;;;;6270621;28;20031;-79
2024/01/14 17:22:20;;;;;;;5.53;2.30;;;;;;;;;;6295376;28;20021;-82
2024/01/14 17:25:20;;;;;;;3.87;2.13;;;;;;;;;;6277949;28;20123;-80
2024/01/14 17:28:21;;;;;;;4.77;1.90;;;;;;;;;;6284325;28;20027;-81
2024/01/14 17:31:21;;;;;;;3.27;2.00;;;;;;;;;;6273311;28;20027;-80
2024/01/14 17:34:21;;;;;;;3.70;2.10;;;;;;;;;;6329064;28;20047;-76
2024/01/14 17:37:22;;;;;;;4.53;2.40;;;;;;;;;;6347724;28;20406;-78
2024/01/14 17:40:22;;;;;;;4.00;1.97;;;;;;;;;;6329308;28;20467;-78
2024/01/14 17:43:22;;;;;;;4.20;2.20;;;;;;;;;;6324194;28;20468;-77
2024/01/14 17:46:23;;;;;;;3.80;1.93;;;;;;;;;;6331073;28;20027;-80
2024/01/14 17:49:23;;;;;;;3.73;1.93;;;;;;;;;;6347955;28;20536;-80
2024/01/14 17:52:23;;;;;;;3.20;2.13;;;;;;;;;;6345170;28;20031;-77
2024/01/14 17:55:23;;;;;;;4.30;2.20;;;;;;;;;;6333640;28;20503;-77
2024/01/14 17:58:24;;;;;;;3.20;1.90;;;;;;;;;;6325614;28;20088;-78
2024/01/14 18:01:24;;;;;;;3.40;2.23;;;;;;;;;;6339856;28;20027;-77
2024/01/14 18:04:24;;;;;;;4.13;2.50;;;;;;;;;;6346354;28;20034;-78
2024/01/14 18:07:25;;;;;;;4.00;2.50;;;;;;;;;;6346749;28;20023;-78